Lodgepole, SD (57640)

12:27 PM MDT on September 02, 2014 (GMT -0600)
Hettinger Municipal | Change Station
CLOSE
Current Station
Airport
Location: Hettinger,
Elevation: 2703 ft
Nearby Weather Stations

Elev 2703 ft 46.01 °N, 102.66 °W | Updated 34 minutes ago

Clear
Clear
72 °F
Feels Like 72 °F
N
14
Wind Variable Wind from West

Today
High -- | Low -- °F
--% Chance of Precip.
Yesterday
High -- | Low -- °F
Precip. -- in
6:13 AM 7:27 PM
First Quarter, 53% visible
Pressure 29.83 in
Visibility 10.0 miles
Clouds Clear
Dew Point 49 °F
Humidity 44%
Rainfall 0.00 in
Snow Depth Not available.
UV 8 out of 12
Pollen 9.40 out of 12
Air Quality Not available.
Flu Activity Not available.
METAR KHEI 021753Z AUTO 27012KT 10SM CLR 22/09 A2986 RMK AO2 SLP102 T02220094 10228 20072 57008

More Conditions Fewer Conditions

Pressure 29.83 in
Visibility 10.0 miles
Clouds Clear
Dew Point 49 °F
Humidity 44%
Rainfall 0.00 in
Snow Depth Not available.
UV 8 out of 12
Pollen 9.40 out of 12
Air Quality Not available.
Flu Activity Not available.
METAR KHEI 021753Z AUTO 27012KT 10SM CLR 22/09 A2986 RMK AO2 SLP102 T02220094 10228 20072 57008

More Conditions Fewer Conditions

10-Day Weather Forecast

Almanac

Astronomy

Sep. 02, 2014 Rise Set
Actual Time 6:13 AM MDT 7:27 PM MDT
Civil Twilight 5:42 AM MDT 7:57 PM MDT
Nautical Twilight 5:05 AM MDT 8:34 PM MDT
Astronomical Twilight 4:26 AM MDT 9:13 PM MDT
Moon 2:22 PM MDT No Moon Set
Length of Visible Light 14h 15m
Length of Day
13h 13m
Tomorrow will be 3m 7s shorter.
First Quarter, 53% of the Moon is Illuminated
Today
First Quarter
Sep 8
Full
Sep 15
Last Quarter
Sep 24
New
Oct 1
First Quarter

Today's Extremes

State Highs State Lows

Community

WunderPhotos

Upload Photos

1,749,727 photos uploaded!

WunderBlogs® & News

Nearby

Snow Depth

Station Depth Elevation
North Rapid Creek 0 in 6130 ft

Earthquake Activity

City Distance Mag. Time & Date
No recent earthquake activity has been reported nearby.
Minimum magnitude displayed is 2.5.

Coastal Water Temperatures

Place Temperature
No Stations Reporting

Nearby Weather Stations